South AfricaFixed distance
Two Oceans Marathon
11 Apr2009
Distance
56km
Finishers
5,8274,484 men1,343 women
Winning time
3:10:07h
Median pace
9.58km/h
Pace distribution
5,827 finishers · 8.00–17.67 km/h · mean 9.93
Every finisher ran the same 56 km course, so these paces are directly comparable.
Histogram of finisher pace. 5,827 finishers ranged from 8.00 to 17.67 kilometres per hour, with a mean of 9.93 and a median of 9.58. The busiest band is 8.0 to 8.5 kilometres per hour, with 1,068 finishers.
Results
Ranks 5,751–5,800 of 5,827
| Rank | Runner | Time | Pace | Cat. | Placing |
|---|---|---|---|---|---|
| 5751 | Mahlako, KlaasSouth AfricaMan | 6:57:44h | 8.04 | M23 | 4421st M · 1005th M23 |
| 5752 | Marsh, HelenSouth AfricaWoman HVAC | 6:57:46h | 8.04 | W40 | 1331st F · 317th W40 |
| 5753 | Osborn, ChrisSouth AfricaMan TOPforM | 6:57:48h | 8.04 | M40 | 4422nd M · 854th M40 |
| 5754 | Skosana, XolaSouth AfricaMan EDGE | 6:57:49h | 8.04 | M40 | 4423rd M · 855th M40 |
| 5755 | Mtshali, RobertSouth AfricaMan KATLEH | 6:57:52h | 8.04 | M40 | 4424th M · 856th M40 |
| 5756 | Nel, LiezlSouth AfricaWoman IRENE | 6:57:53h | 8.04 | W35 | 1332nd F · 296th W35 |
| 5757 | Nel, DawidSouth AfricaMan IRENE | 6:57:54h | 8.04 | M35 | 4425th M · 825th M35 |
| 5758 | Groll, GeraldSouth AfricaMan AAC | 6:57:54h | 8.04 | M60 | 4425th M · 127th M60 |
| 5759 | Taylor, Peter (Hedley)South AfricaMan CELTIC | 6:57:55h | 8.04 | M50 | 4427th M · 502nd M50 |
| 5760 | Sangweni, Siphiwe BrandonSouth AfricaMan | 6:57:57h | 8.04 | M35 | 4428th M · 826th M35 |
| 5761 | Bird, EdmundSouth AfricaMan STRAG | 6:57:58h | 8.04 | M50 | 4429th M · 503rd M50 |
| 5762 | du Plessis, AntonSouth AfricaMan WELLING | 6:57:59h | 8.04 | M35 | 4430th M · 827th M35 |
| 5763 | Hardnick, RonaldSouth AfricaMan QH | 6:58:00h | 8.04 | M40 | 4431st M · 857th M40 |
| 5764 | Hendricks, HenrySouth AfricaMan | 6:58:01h | 8.04 | M40 | 4432nd M · 858th M40 |
| 5765 | Burger, JohanSouth AfricaMan TYGER | 6:58:06h | 8.04 | M50 | 4433rd M · 504th M50 |
| 5766 | Vallie, MiriamSouth AfricaWoman | 6:58:08h | 8.04 | W35 | 1333rd F · 297th W35 |
| 5767 | Clark, RobinSouth AfricaMan ACH | 6:58:10h | 8.04 | M65 | 4434th M · 40th M65 |
| 5768 | Kleinsmith, PierreSouth AfricaMan GUGS | 6:58:12h | 8.03 | M23 | 4435th M · 1006th M23 |
| 5769 | Ellis, AlexanderSouth AfricaMan TUKS | 6:58:13h | 8.03 | M45 | 4436th M · 744th M45 |
| 5770 | Sadek, IsmailSouth AfricaMan CRESRun | 6:58:14h | 8.03 | M35 | 4437th M · 828th M35 |
| 5771 | Stals, AnthonySouth AfricaMan SYDENSC | 6:58:16h | 8.03 | M65 | 4438th M · 41st M65 |
| 5772 | Geuens, LieveBelgiumWoman FITCG | 6:58:24h | 8.03 | W55 | 1334th F · 44th W55 |
| 5773 | Raubenheimer, ChrisSouth AfricaMan PMMC | 6:58:25h | 8.03 | M45 | 4439th M · 745th M45 |
| 5774 | Heydenrych, AndreSouth AfricaMan RPAC | 6:58:26h | 8.03 | M60 | 4440th M · 128th M60 |
| 5775 | Schnetler, BrentonSouth AfricaMan PEAAC | 6:58:26h | 8.03 | M23 | 4440th M · 1007th M23 |
| 5776 | Hess, HermonSouth AfricaMan MPTITAN | 6:58:27h | 8.03 | M40 | 4442nd M · 859th M40 |
| 5777 | Lawrence, DwightSouth AfricaMan TYGER | 6:58:28h | 8.03 | M23 | 4443rd M · 1008th M23 |
| 5778 | Hoffman, AlwynSouth AfricaMan MCAMC | 6:58:28h | 8.03 | M45 | 4443rd M · 746th M45 |
| 5779 | Mogotsi, SollySouth AfricaMan SOWCAB | 6:58:30h | 8.03 | M55 | 4445th M · 287th M55 |
| 5780 | Davidson, BevZimbabweWoman | 6:58:31h | 8.03 | W35 | 1335th F · 298th W35 |
| 5781 | Hattingh, BarendSouth AfricaMan VODAWP | 6:58:31h | 8.03 | M60 | 4446th M · 129th M60 |
| 5782 | Turnbull, MichaelNew ZealandMan | 6:58:31h | 8.03 | M55 | 4446th M · 288th M55 |
| 5783 | Manana, JabulaniSouth AfricaMan KINETIC | 6:58:32h | 8.03 | M40 | 4448th M · 860th M40 |
| 5784 | Roets, LourensSouth AfricaMan | 6:58:32h | 8.03 | M35 | 4448th M · 829th M35 |
| 5785 | Mkhize, BoyceSouth AfricaMan ARCADIA | 6:58:32h | 8.03 | M35 | 4448th M · 829th M35 |
| 5786 | Rothman, BrianSouth AfricaMan BRACKEN | 6:58:35h | 8.03 | M55 | 4451st M · 289th M55 |
| 5787 | Strez, HelaSouth AfricaWoman HAHA | 6:58:38h | 8.03 | W45 | 1336th F · 244th W45 |
| 5788 | Pryke, DavidSouth AfricaMan KNYSNA | 6:58:40h | 8.03 | M35 | 4452nd M · 831st M35 |
| 5789 | Le Roux, ColinSouth AfricaMan GUGS | 6:58:40h | 8.03 | M45 | 4452nd M · 747th M45 |
| 5790 | Jairam, JeevarathnamSouth AfricaMan STJAMES | 6:58:43h | 8.03 | M45 | 4454th M · 748th M45 |
| 5791 | Townsend, StephenSouth AfricaMan AAC | 6:58:44h | 8.02 | M23 | 4455th M · 1009th M23 |
| 5792 | Zeeman, DonovanSouth AfricaMan PINE | 6:58:47h | 8.02 | M23 | 4456th M · 1010th M23 |
| 5793 | Edwards, RussellSouth AfricaMan | 6:58:47h | 8.02 | M40 | 4456th M · 861st M40 |
| 5794 | Brinders, LanceSouth AfricaMan EDGE | 6:58:48h | 8.02 | M35 | 4458th M · 832nd M35 |
| 5795 | Prinsloo, Erens LodewykSouth AfricaMan ESKMPL | 6:58:49h | 8.02 | M35 | 4459th M · 833rd M35 |
| 5796 | Thubisi, Michael KabeloSouth AfricaMan RAC | 6:58:54h | 8.02 | M55 | 4460th M · 290th M55 |
| 5797 | Kangas, AugustusUnited StatesMan | 6:58:56h | 8.02 | M35 | 4461st M · 834th M35 |
| 5798 | Cormack, RodgerSouth AfricaMan QUINS | 6:59:01h | 8.02 | M55 | 4462nd M · 291st M55 |
| 5799 | Budhal, RishichandSouth AfricaMan CHATS | 6:59:04h | 8.02 | M45 | 4463rd M · 749th M45 |
| 5800 | Cebekulu, PatrickSouth AfricaMan RAC | 6:59:08h | 8.02 | M55 | 4464th M · 292nd M55 |
- 5751Mahlako, KlaasSouth AfricaMan4421st M · 1005th M23Time6:57:44hPace8.04Cat.M23
- 5752Marsh, HelenSouth AfricaWomanHVAC1331st F · 317th W40Time6:57:46hPace8.04Cat.W40
- 5753Osborn, ChrisSouth AfricaManTOPforM4422nd M · 854th M40Time6:57:48hPace8.04Cat.M40
- 5754Skosana, XolaSouth AfricaManEDGE4423rd M · 855th M40Time6:57:49hPace8.04Cat.M40
- 5755Mtshali, RobertSouth AfricaManKATLEH4424th M · 856th M40Time6:57:52hPace8.04Cat.M40
- 5756Nel, LiezlSouth AfricaWomanIRENE1332nd F · 296th W35Time6:57:53hPace8.04Cat.W35
- 5757Nel, DawidSouth AfricaManIRENE4425th M · 825th M35Time6:57:54hPace8.04Cat.M35
- 5758Groll, GeraldSouth AfricaManAAC4425th M · 127th M60Time6:57:54hPace8.04Cat.M60
- 5759Taylor, Peter (Hedley)South AfricaManCELTIC4427th M · 502nd M50Time6:57:55hPace8.04Cat.M50
- 5760Sangweni, Siphiwe BrandonSouth AfricaMan4428th M · 826th M35Time6:57:57hPace8.04Cat.M35
- 5761Bird, EdmundSouth AfricaManSTRAG4429th M · 503rd M50Time6:57:58hPace8.04Cat.M50
- 5762du Plessis, AntonSouth AfricaManWELLING4430th M · 827th M35Time6:57:59hPace8.04Cat.M35
- 5763Hardnick, RonaldSouth AfricaManQH4431st M · 857th M40Time6:58:00hPace8.04Cat.M40
- 5764Hendricks, HenrySouth AfricaMan4432nd M · 858th M40Time6:58:01hPace8.04Cat.M40
- 5765Burger, JohanSouth AfricaManTYGER4433rd M · 504th M50Time6:58:06hPace8.04Cat.M50
- 5766Vallie, MiriamSouth AfricaWoman1333rd F · 297th W35Time6:58:08hPace8.04Cat.W35
- 5767Clark, RobinSouth AfricaManACH4434th M · 40th M65Time6:58:10hPace8.04Cat.M65
- 5768Kleinsmith, PierreSouth AfricaManGUGS4435th M · 1006th M23Time6:58:12hPace8.03Cat.M23
- 5769Ellis, AlexanderSouth AfricaManTUKS4436th M · 744th M45Time6:58:13hPace8.03Cat.M45
- 5770Sadek, IsmailSouth AfricaManCRESRun4437th M · 828th M35Time6:58:14hPace8.03Cat.M35
- 5771Stals, AnthonySouth AfricaManSYDENSC4438th M · 41st M65Time6:58:16hPace8.03Cat.M65
- 5772Geuens, LieveBelgiumWomanFITCG1334th F · 44th W55Time6:58:24hPace8.03Cat.W55
- 5773Raubenheimer, ChrisSouth AfricaManPMMC4439th M · 745th M45Time6:58:25hPace8.03Cat.M45
- 5774Heydenrych, AndreSouth AfricaManRPAC4440th M · 128th M60Time6:58:26hPace8.03Cat.M60
- 5775Schnetler, BrentonSouth AfricaManPEAAC4440th M · 1007th M23Time6:58:26hPace8.03Cat.M23
- 5776Hess, HermonSouth AfricaManMPTITAN4442nd M · 859th M40Time6:58:27hPace8.03Cat.M40
- 5777Lawrence, DwightSouth AfricaManTYGER4443rd M · 1008th M23Time6:58:28hPace8.03Cat.M23
- 5778Hoffman, AlwynSouth AfricaManMCAMC4443rd M · 746th M45Time6:58:28hPace8.03Cat.M45
- 5779Mogotsi, SollySouth AfricaManSOWCAB4445th M · 287th M55Time6:58:30hPace8.03Cat.M55
- 5780Davidson, BevZimbabweWoman1335th F · 298th W35Time6:58:31hPace8.03Cat.W35
- 5781Hattingh, BarendSouth AfricaManVODAWP4446th M · 129th M60Time6:58:31hPace8.03Cat.M60
- 5782Turnbull, MichaelNew ZealandMan4446th M · 288th M55Time6:58:31hPace8.03Cat.M55
- 5783Manana, JabulaniSouth AfricaManKINETIC4448th M · 860th M40Time6:58:32hPace8.03Cat.M40
- 5784Roets, LourensSouth AfricaMan4448th M · 829th M35Time6:58:32hPace8.03Cat.M35
- 5785Mkhize, BoyceSouth AfricaManARCADIA4448th M · 829th M35Time6:58:32hPace8.03Cat.M35
- 5786Rothman, BrianSouth AfricaManBRACKEN4451st M · 289th M55Time6:58:35hPace8.03Cat.M55
- 5787Strez, HelaSouth AfricaWomanHAHA1336th F · 244th W45Time6:58:38hPace8.03Cat.W45
- 5788Pryke, DavidSouth AfricaManKNYSNA4452nd M · 831st M35Time6:58:40hPace8.03Cat.M35
- 5789Le Roux, ColinSouth AfricaManGUGS4452nd M · 747th M45Time6:58:40hPace8.03Cat.M45
- 5790Jairam, JeevarathnamSouth AfricaManSTJAMES4454th M · 748th M45Time6:58:43hPace8.03Cat.M45
- 5791Townsend, StephenSouth AfricaManAAC4455th M · 1009th M23Time6:58:44hPace8.02Cat.M23
- 5792Zeeman, DonovanSouth AfricaManPINE4456th M · 1010th M23Time6:58:47hPace8.02Cat.M23
- 5793Edwards, RussellSouth AfricaMan4456th M · 861st M40Time6:58:47hPace8.02Cat.M40
- 5794Brinders, LanceSouth AfricaManEDGE4458th M · 832nd M35Time6:58:48hPace8.02Cat.M35
- 5795Prinsloo, Erens LodewykSouth AfricaManESKMPL4459th M · 833rd M35Time6:58:49hPace8.02Cat.M35
- 5796Thubisi, Michael KabeloSouth AfricaManRAC4460th M · 290th M55Time6:58:54hPace8.02Cat.M55
- 5797Kangas, AugustusUnited StatesMan4461st M · 834th M35Time6:58:56hPace8.02Cat.M35
- 5798Cormack, RodgerSouth AfricaManQUINS4462nd M · 291st M55Time6:59:01hPace8.02Cat.M55
- 5799Budhal, RishichandSouth AfricaManCHATS4463rd M · 749th M45Time6:59:04hPace8.02Cat.M45
- 5800Cebekulu, PatrickSouth AfricaManRAC4464th M · 292nd M55Time6:59:08hPace8.02Cat.M55
Showing ranks 5,751–5,800 of 5,827